Accueil
METAR-TAF:

METAR-TAF

Aéroports :

Montichiari

Brescia, Italie

latitude: 45-24-02N, longitude: 010-18-59E, altitude: 104 m

Observation

Le bulletin a été fait il y a 35 minutes, à 17:50 UTC
Vent 6 kt de ouest
Température 4°C
Humidité 93%
Pression 1009 hPa
Visibilité: 6000 m

METAR: LIPO 201750Z 27006KT 6000 NSC 04/03 Q1009

Heure: 19:25 (18:25 UTC)

Prévision

Le bulletin a été fait il y a 1 heure et 25 minutes, à 17:00 UTC
Prévision valable du 20 à 18 UTC au 21 à 18 UTC
Vent 5 kt de direction variable
Visibilité: 6000 m
Nuages épars à une hauteur de 4000 ft
Temporairement
du 21 à 02 UTC au 21 à 07 UTC
Visibilité: 3000 m
brume

TAF: LIPO 201700Z 2018/2118 VRB05KT 6000 SCT040 TEMPO 2102/2107 3000 BR

Observations et prévisions météorologiques de plus de 4000 aéroports (messages METAR et TAF).

Les stations disponibles sont représentées par des disques jaunes et rouges sur la carte.

Passer la souris dessus pour voir le nom de la station.

Cliquer dessus pour voir les observations et prévisions météorologiques.

Pour changer de carte: cliquez sur les boutons verts avec une croix noire pour zoomer, sur le bouton vert avec un tiret pour effectuer un zoom arrière, ou sur les flèches vertes pour les cartes adjacentes.


METAR-TAF: